sensor_id;sensor_type;location;lat;lon;timestamp;P1;durP1;ratioP1;P2;durP2;ratioP2
37945;SDS011;23769;52.478;13.448;2024-03-06T00:01:23;34.40;;;17.30;;
37945;SDS011;23769;52.478;13.448;2024-03-06T00:03:50;31.95;;;17.83;;
37945;SDS011;23769;52.478;13.448;2024-03-06T00:06:18;32.13;;;17.70;;
37945;SDS011;23769;52.478;13.448;2024-03-06T00:08:45;33.67;;;18.15;;
37945;SDS011;23769;52.478;13.448;2024-03-06T00:11:12;32.38;;;17.25;;
37945;SDS011;23769;52.478;13.448;2024-03-06T00:13:40;34.28;;;18.27;;
37945;SDS011;23769;52.478;13.448;2024-03-06T00:16:09;35.40;;;18.35;;
37945;SDS011;23769;52.478;13.448;2024-03-06T00:18:36;33.78;;;17.08;;
37945;SDS011;23769;52.478;13.448;2024-03-06T00:21:03;33.85;;;18.27;;
37945;SDS011;23769;52.478;13.448;2024-03-06T00:23:31;37.78;;;18.90;;
37945;SDS011;23769;52.478;13.448;2024-03-06T00:25:58;30.52;;;17.85;;
37945;SDS011;23769;52.478;13.448;2024-03-06T00:28:25;35.53;;;18.15;;
37945;SDS011;23769;52.478;13.448;2024-03-06T00:30:52;41.35;;;21.23;;
37945;SDS011;23769;52.478;13.448;2024-03-06T00:33:21;44.60;;;20.75;;
37945;SDS011;23769;52.478;13.448;2024-03-06T00:35:48;31.08;;;18.27;;
37945;SDS011;23769;52.478;13.448;2024-03-06T00:38:15;30.92;;;17.02;;
37945;SDS011;23769;52.478;13.448;2024-03-06T00:40:42;32.55;;;18.00;;
37945;SDS011;23769;52.478;13.448;2024-03-06T00:43:10;32.03;;;18.02;;
37945;SDS011;23769;52.478;13.448;2024-03-06T00:45:37;33.55;;;17.65;;
37945;SDS011;23769;52.478;13.448;2024-03-06T00:48:04;30.08;;;16.70;;
37945;SDS011;23769;52.478;13.448;2024-03-06T00:50:33;32.60;;;18.20;;
37945;SDS011;23769;52.478;13.448;2024-03-06T00:53:00;39.58;;;18.67;;
37945;SDS011;23769;52.478;13.448;2024-03-06T00:55:29;34.08;;;18.02;;
37945;SDS011;23769;52.478;13.448;2024-03-06T00:57:56;33.30;;;17.38;;
37945;SDS011;23769;52.478;13.448;2024-03-06T01:00:24;33.47;;;18.50;;
37945;SDS011;23769;52.478;13.448;2024-03-06T01:02:51;34.38;;;17.80;;
37945;SDS011;23769;52.478;13.448;2024-03-06T01:05:18;43.97;;;22.67;;
37945;SDS011;23769;52.478;13.448;2024-03-06T01:07:46;33.60;;;18.73;;
37945;SDS011;23769;52.478;13.448;2024-03-06T01:10:14;38.58;;;20.33;;
37945;SDS011;23769;52.478;13.448;2024-03-06T01:12:41;35.58;;;19.05;;
37945;SDS011;23769;52.478;13.448;2024-03-06T01:15:10;32.58;;;16.98;;
37945;SDS011;23769;52.478;13.448;2024-03-06T01:17:38;33.80;;;16.58;;
37945;SDS011;23769;52.478;13.448;2024-03-06T01:20:05;36.33;;;18.45;;
37945;SDS011;23769;52.478;13.448;2024-03-06T01:22:33;34.95;;;18.13;;
37945;SDS011;23769;52.478;13.448;2024-03-06T01:25:01;33.58;;;18.40;;
37945;SDS011;23769;52.478;13.448;2024-03-06T01:27:29;37.90;;;18.60;;
37945;SDS011;23769;52.478;13.448;2024-03-06T01:29:57;34.13;;;18.00;;
37945;SDS011;23769;52.478;13.448;2024-03-06T01:32:24;32.78;;;17.00;;
37945;SDS011;23769;52.478;13.448;2024-03-06T01:34:51;34.33;;;18.20;;
37945;SDS011;23769;52.478;13.448;2024-03-06T01:37:18;34.42;;;18.95;;
37945;SDS011;23769;52.478;13.448;2024-03-06T01:39:45;33.30;;;18.58;;
37945;SDS011;23769;52.478;13.448;2024-03-06T01:42:16;34.55;;;18.02;;
37945;SDS011;23769;52.478;13.448;2024-03-06T01:44:44;31.25;;;18.80;;
37945;SDS011;23769;52.478;13.448;2024-03-06T01:47:11;34.05;;;17.48;;
37945;SDS011;23769;52.478;13.448;2024-03-06T01:49:38;33.25;;;18.58;;
37945;SDS011;23769;52.478;13.448;2024-03-06T01:52:06;34.20;;;18.40;;
37945;SDS011;23769;52.478;13.448;2024-03-06T01:54:33;31.55;;;18.20;;
37945;SDS011;23769;52.478;13.448;2024-03-06T01:57:00;34.63;;;17.83;;
37945;SDS011;23769;52.478;13.448;2024-03-06T01:59:29;36.08;;;20.63;;
37945;SDS011;23769;52.478;13.448;2024-03-06T02:01:57;33.58;;;17.88;;
37945;SDS011;23769;52.478;13.448;2024-03-06T02:04:26;34.45;;;19.13;;
37945;SDS011;23769;52.478;13.448;2024-03-06T02:06:53;38.28;;;18.48;;
37945;SDS011;23769;52.478;13.448;2024-03-06T02:09:21;46.70;;;22.73;;
37945;SDS011;23769;52.478;13.448;2024-03-06T02:11:48;38.33;;;19.30;;
37945;SDS011;23769;52.478;13.448;2024-03-06T02:14:16;34.05;;;18.73;;
37945;SDS011;23769;52.478;13.448;2024-03-06T02:16:45;33.40;;;18.35;;
37945;SDS011;23769;52.478;13.448;2024-03-06T02:19:15;38.42;;;20.60;;
37945;SDS011;23769;52.478;13.448;2024-03-06T02:21:43;33.97;;;18.00;;
37945;SDS011;23769;52.478;13.448;2024-03-06T02:24:11;34.63;;;19.38;;
37945;SDS011;23769;52.478;13.448;2024-03-06T02:26:39;32.80;;;16.65;;
37945;SDS011;23769;52.478;13.448;2024-03-06T02:29:06;35.67;;;18.98;;
37945;SDS011;23769;52.478;13.448;2024-03-06T02:31:34;32.85;;;17.60;;
37945;SDS011;23769;52.478;13.448;2024-03-06T02:34:01;30.38;;;18.00;;
37945;SDS011;23769;52.478;13.448;2024-03-06T02:36:31;35.28;;;19.80;;
37945;SDS011;23769;52.478;13.448;2024-03-06T02:39:00;36.20;;;19.23;;
37945;SDS011;23769;52.478;13.448;2024-03-06T02:41:33;36.75;;;18.83;;
37945;SDS011;23769;52.478;13.448;2024-03-06T02:44:01;35.25;;;19.58;;
37945;SDS011;23769;52.478;13.448;2024-03-06T02:46:28;34.00;;;17.88;;
37945;SDS011;23769;52.478;13.448;2024-03-06T02:48:56;37.95;;;19.10;;
37945;SDS011;23769;52.478;13.448;2024-03-06T02:51:23;33.50;;;17.85;;
37945;SDS011;23769;52.478;13.448;2024-03-06T02:53:50;38.63;;;19.83;;
37945;SDS011;23769;52.478;13.448;2024-03-06T02:56:19;35.70;;;19.88;;
37945;SDS011;23769;52.478;13.448;2024-03-06T02:58:47;37.67;;;20.77;;
37945;SDS011;23769;52.478;13.448;2024-03-06T03:01:14;33.40;;;16.95;;
37945;SDS011;23769;52.478;13.448;2024-03-06T03:03:42;36.67;;;19.23;;
37945;SDS011;23769;52.478;13.448;2024-03-06T03:06:12;32.97;;;18.98;;
37945;SDS011;23769;52.478;13.448;2024-03-06T03:08:39;36.80;;;19.67;;
37945;SDS011;23769;52.478;13.448;2024-03-06T03:11:06;46.55;;;22.25;;
37945;SDS011;23769;52.478;13.448;2024-03-06T03:13:36;39.72;;;19.98;;
37945;SDS011;23769;52.478;13.448;2024-03-06T03:16:04;42.42;;;21.60;;
37945;SDS011;23769;52.478;13.448;2024-03-06T03:18:32;35.15;;;18.30;;
37945;SDS011;23769;52.478;13.448;2024-03-06T03:20:59;40.60;;;21.38;;
37945;SDS011;23769;52.478;13.448;2024-03-06T03:23:26;40.72;;;20.45;;
37945;SDS011;23769;52.478;13.448;2024-03-06T03:25:54;34.88;;;18.58;;
37945;SDS011;23769;52.478;13.448;2024-03-06T03:28:21;33.47;;;17.95;;
37945;SDS011;23769;52.478;13.448;2024-03-06T03:30:50;40.28;;;20.02;;
37945;SDS011;23769;52.478;13.448;2024-03-06T03:33:17;41.97;;;21.30;;
37945;SDS011;23769;52.478;13.448;2024-03-06T03:35:44;41.03;;;20.88;;
37945;SDS011;23769;52.478;13.448;2024-03-06T03:38:11;38.97;;;20.98;;
37945;SDS011;23769;52.478;13.448;2024-03-06T03:40:38;38.45;;;20.42;;
37945;SDS011;23769;52.478;13.448;2024-03-06T03:43:06;44.75;;;21.17;;
37945;SDS011;23769;52.478;13.448;2024-03-06T03:45:33;43.20;;;22.17;;
37945;SDS011;23769;52.478;13.448;2024-03-06T03:48:02;40.33;;;21.65;;
37945;SDS011;23769;52.478;13.448;2024-03-06T03:50:30;39.13;;;21.42;;
37945;SDS011;23769;52.478;13.448;2024-03-06T03:52:58;38.13;;;19.92;;
37945;SDS011;23769;52.478;13.448;2024-03-06T03:55:26;38.42;;;21.52;;
37945;SDS011;23769;52.478;13.448;2024-03-06T03:57:53;39.03;;;20.45;;
37945;SDS011;23769;52.478;13.448;2024-03-06T04:00:20;42.38;;;21.15;;
37945;SDS011;23769;52.478;13.448;2024-03-06T04:02:48;40.35;;;21.85;;
37945;SDS011;23769;52.478;13.448;2024-03-06T04:05:16;38.13;;;21.05;;
37945;SDS011;23769;52.478;13.448;2024-03-06T04:07:44;41.05;;;22.15;;
37945;SDS011;23769;52.478;13.448;2024-03-06T04:10:11;45.10;;;22.80;;
37945;SDS011;23769;52.478;13.448;2024-03-06T04:12:38;39.22;;;19.90;;
37945;SDS011;23769;52.478;13.448;2024-03-06T04:15:06;37.33;;;20.27;;
37945;SDS011;23769;52.478;13.448;2024-03-06T04:17:33;42.67;;;20.90;;
37945;SDS011;23769;52.478;13.448;2024-03-06T04:20:01;40.45;;;20.90;;
37945;SDS011;23769;52.478;13.448;2024-03-06T04:22:30;39.05;;;20.17;;
37945;SDS011;23769;52.478;13.448;2024-03-06T04:24:57;40.30;;;21.42;;
37945;SDS011;23769;52.478;13.448;2024-03-06T04:27:24;42.33;;;22.50;;
37945;SDS011;23769;52.478;13.448;2024-03-06T04:29:52;40.22;;;20.48;;
37945;SDS011;23769;52.478;13.448;2024-03-06T04:32:19;39.65;;;21.13;;
37945;SDS011;23769;52.478;13.448;2024-03-06T04:34:46;47.75;;;26.00;;
37945;SDS011;23769;52.478;13.448;2024-03-06T04:37:13;41.85;;;24.02;;
37945;SDS011;23769;52.478;13.448;2024-03-06T04:39:42;39.95;;;21.88;;
37945;SDS011;23769;52.478;13.448;2024-03-06T04:42:09;48.60;;;26.52;;
37945;SDS011;23769;52.478;13.448;2024-03-06T04:44:36;38.25;;;22.35;;
37945;SDS011;23769;52.478;13.448;2024-03-06T04:47:04;43.40;;;22.75;;
37945;SDS011;23769;52.478;13.448;2024-03-06T04:49:32;44.33;;;27.40;;
37945;SDS011;23769;52.478;13.448;2024-03-06T04:52:00;44.60;;;24.15;;
37945;SDS011;23769;52.478;13.448;2024-03-06T04:54:28;47.83;;;27.50;;
37945;SDS011;23769;52.478;13.448;2024-03-06T04:56:56;65.15;;;35.72;;
37945;SDS011;23769;52.478;13.448;2024-03-06T04:59:23;64.88;;;36.70;;
37945;SDS011;23769;52.478;13.448;2024-03-06T05:01:51;69.88;;;39.33;;
37945;SDS011;23769;52.478;13.448;2024-03-06T05:04:18;58.83;;;34.47;;
37945;SDS011;23769;52.478;13.448;2024-03-06T05:06:46;47.30;;;26.83;;
37945;SDS011;23769;52.478;13.448;2024-03-06T05:09:13;41.80;;;25.27;;
37945;SDS011;23769;52.478;13.448;2024-03-06T05:11:40;42.97;;;23.77;;
37945;SDS011;23769;52.478;13.448;2024-03-06T05:14:09;41.92;;;23.27;;
37945;SDS011;23769;52.478;13.448;2024-03-06T05:16:36;44.20;;;24.35;;
37945;SDS011;23769;52.478;13.448;2024-03-06T05:19:03;39.60;;;22.75;;
37945;SDS011;23769;52.478;13.448;2024-03-06T05:21:32;49.30;;;23.55;;
37945;SDS011;23769;52.478;13.448;2024-03-06T05:24:00;38.05;;;22.05;;
37945;SDS011;23769;52.478;13.448;2024-03-06T05:26:27;38.40;;;21.52;;
37945;SDS011;23769;52.478;13.448;2024-03-06T05:28:55;45.40;;;24.23;;
37945;SDS011;23769;52.478;13.448;2024-03-06T05:31:23;57.50;;;32.05;;
37945;SDS011;23769;52.478;13.448;2024-03-06T05:33:50;49.65;;;29.13;;
37945;SDS011;23769;52.478;13.448;2024-03-06T05:36:18;46.38;;;25.08;;
37945;SDS011;23769;52.478;13.448;2024-03-06T05:38:45;48.40;;;25.30;;
37945;SDS011;23769;52.478;13.448;2024-03-06T05:41:13;46.25;;;24.50;;
37945;SDS011;23769;52.478;13.448;2024-03-06T05:43:43;46.08;;;23.10;;
37945;SDS011;23769;52.478;13.448;2024-03-06T05:46:13;42.90;;;22.48;;
37945;SDS011;23769;52.478;13.448;2024-03-06T05:48:42;37.63;;;20.25;;
37945;SDS011;23769;52.478;13.448;2024-03-06T05:51:09;42.88;;;22.10;;
37945;SDS011;23769;52.478;13.448;2024-03-06T05:53:36;38.17;;;21.10;;
37945;SDS011;23769;52.478;13.448;2024-03-06T05:56:06;42.83;;;21.60;;
37945;SDS011;23769;52.478;13.448;2024-03-06T05:58:33;42.28;;;21.85;;
37945;SDS011;23769;52.478;13.448;2024-03-06T06:01:01;47.22;;;24.27;;
37945;SDS011;23769;52.478;13.448;2024-03-06T06:03:28;41.08;;;21.48;;
37945;SDS011;23769;52.478;13.448;2024-03-06T06:05:57;52.42;;;25.85;;
37945;SDS011;23769;52.478;13.448;2024-03-06T06:08:24;41.05;;;23.30;;
37945;SDS011;23769;52.478;13.448;2024-03-06T06:10:52;47.15;;;23.38;;
37945;SDS011;23769;52.478;13.448;2024-03-06T06:13:20;43.72;;;21.35;;
37945;SDS011;23769;52.478;13.448;2024-03-06T06:15:48;41.13;;;21.92;;
37945;SDS011;23769;52.478;13.448;2024-03-06T06:18:15;43.30;;;21.05;;
37945;SDS011;23769;52.478;13.448;2024-03-06T06:20:42;42.55;;;22.40;;
37945;SDS011;23769;52.478;13.448;2024-03-06T06:23:11;36.65;;;22.27;;
37945;SDS011;23769;52.478;13.448;2024-03-06T06:25:38;41.13;;;21.75;;
37945;SDS011;23769;52.478;13.448;2024-03-06T06:28:06;40.22;;;22.13;;
37945;SDS011;23769;52.478;13.448;2024-03-06T06:30:36;41.85;;;21.85;;
37945;SDS011;23769;52.478;13.448;2024-03-06T06:33:04;38.63;;;20.92;;
37945;SDS011;23769;52.478;13.448;2024-03-06T06:35:31;36.08;;;20.77;;
37945;SDS011;23769;52.478;13.448;2024-03-06T06:37:59;39.25;;;20.67;;
37945;SDS011;23769;52.478;13.448;2024-03-06T06:40:28;36.70;;;20.75;;
37945;SDS011;23769;52.478;13.448;2024-03-06T06:42:55;35.97;;;19.73;;
37945;SDS011;23769;52.478;13.448;2024-03-06T06:45:22;37.03;;;20.60;;
37945;SDS011;23769;52.478;13.448;2024-03-06T06:47:50;39.45;;;21.58;;
37945;SDS011;23769;52.478;13.448;2024-03-06T06:50:18;38.03;;;20.73;;
37945;SDS011;23769;52.478;13.448;2024-03-06T06:52:48;31.77;;;18.45;;
37945;SDS011;23769;52.478;13.448;2024-03-06T06:55:15;34.72;;;18.90;;
37945;SDS011;23769;52.478;13.448;2024-03-06T06:57:44;33.35;;;18.17;;
37945;SDS011;23769;52.478;13.448;2024-03-06T07:00:11;37.05;;;20.08;;
37945;SDS011;23769;52.478;13.448;2024-03-06T07:02:41;35.28;;;19.30;;
37945;SDS011;23769;52.478;13.448;2024-03-06T07:05:09;36.13;;;20.15;;
37945;SDS011;23769;52.478;13.448;2024-03-06T07:07:36;35.85;;;18.80;;
37945;SDS011;23769;52.478;13.448;2024-03-06T07:10:04;43.90;;;20.52;;
37945;SDS011;23769;52.478;13.448;2024-03-06T07:12:31;34.47;;;19.08;;
37945;SDS011;23769;52.478;13.448;2024-03-06T07:15:00;36.75;;;18.55;;
37945;SDS011;23769;52.478;13.448;2024-03-06T07:17:28;33.72;;;17.88;;
37945;SDS011;23769;52.478;13.448;2024-03-06T07:19:55;39.58;;;18.23;;
37945;SDS011;23769;52.478;13.448;2024-03-06T07:22:22;39.50;;;19.65;;
37945;SDS011;23769;52.478;13.448;2024-03-06T07:24:49;38.40;;;19.13;;
37945;SDS011;23769;52.478;13.448;2024-03-06T07:27:16;39.35;;;19.67;;
37945;SDS011;23769;52.478;13.448;2024-03-06T07:29:44;37.88;;;18.65;;
37945;SDS011;23769;52.478;13.448;2024-03-06T07:32:13;35.63;;;18.15;;
37945;SDS011;23769;52.478;13.448;2024-03-06T07:34:40;34.67;;;18.63;;
37945;SDS011;23769;52.478;13.448;2024-03-06T07:37:07;30.83;;;16.95;;
37945;SDS011;23769;52.478;13.448;2024-03-06T07:39:34;30.05;;;16.17;;
37945;SDS011;23769;52.478;13.448;2024-03-06T07:42:02;32.83;;;18.27;;
37945;SDS011;23769;52.478;13.448;2024-03-06T07:44:29;28.13;;;16.58;;
37945;SDS011;23769;52.478;13.448;2024-03-06T07:46:56;26.70;;;16.20;;
37945;SDS011;23769;52.478;13.448;2024-03-06T07:49:25;30.02;;;16.45;;
37945;SDS011;23769;52.478;13.448;2024-03-06T07:51:52;29.33;;;16.67;;
37945;SDS011;23769;52.478;13.448;2024-03-06T07:54:19;28.60;;;17.33;;
37945;SDS011;23769;52.478;13.448;2024-03-06T07:56:47;30.80;;;17.38;;
37945;SDS011;23769;52.478;13.448;2024-03-06T07:59:14;27.85;;;15.48;;
37945;SDS011;23769;52.478;13.448;2024-03-06T08:01:43;28.48;;;16.10;;
37945;SDS011;23769;52.478;13.448;2024-03-06T08:04:11;28.75;;;16.63;;
37945;SDS011;23769;52.478;13.448;2024-03-06T08:06:40;31.08;;;15.77;;
37945;SDS011;23769;52.478;13.448;2024-03-06T08:09:07;31.90;;;16.40;;
37945;SDS011;23769;52.478;13.448;2024-03-06T08:11:34;30.60;;;17.67;;
37945;SDS011;23769;52.478;13.448;2024-03-06T08:14:01;30.35;;;17.55;;
37945;SDS011;23769;52.478;13.448;2024-03-06T08:16:29;26.50;;;15.43;;
37945;SDS011;23769;52.478;13.448;2024-03-06T08:18:58;30.08;;;16.40;;
37945;SDS011;23769;52.478;13.448;2024-03-06T08:21:25;33.00;;;17.70;;
37945;SDS011;23769;52.478;13.448;2024-03-06T08:23:57;29.25;;;18.02;;
37945;SDS011;23769;52.478;13.448;2024-03-06T08:26:24;31.90;;;17.10;;
37945;SDS011;23769;52.478;13.448;2024-03-06T08:28:52;31.08;;;17.20;;
37945;SDS011;23769;52.478;13.448;2024-03-06T08:31:19;30.63;;;16.05;;
37945;SDS011;23769;52.478;13.448;2024-03-06T08:33:50;27.77;;;14.82;;
37945;SDS011;23769;52.478;13.448;2024-03-06T08:36:19;28.63;;;15.73;;
37945;SDS011;23769;52.478;13.448;2024-03-06T08:38:47;29.80;;;16.25;;
37945;SDS011;23769;52.478;13.448;2024-03-06T08:41:16;27.85;;;15.70;;
37945;SDS011;23769;52.478;13.448;2024-03-06T08:43:43;28.70;;;15.15;;
37945;SDS011;23769;52.478;13.448;2024-03-06T08:46:11;29.30;;;16.40;;
37945;SDS011;23769;52.478;13.448;2024-03-06T08:48:38;33.40;;;16.63;;
37945;SDS011;23769;52.478;13.448;2024-03-06T08:51:05;25.25;;;14.50;;
37945;SDS011;23769;52.478;13.448;2024-03-06T08:53:36;22.75;;;12.82;;
37945;SDS011;23769;52.478;13.448;2024-03-06T08:56:04;24.30;;;12.77;;
37945;SDS011;23769;52.478;13.448;2024-03-06T08:58:32;18.45;;;11.10;;
37945;SDS011;23769;52.478;13.448;2024-03-06T09:01:00;19.98;;;11.88;;
37945;SDS011;23769;52.478;13.448;2024-03-06T09:03:27;18.38;;;11.35;;
37945;SDS011;23769;52.478;13.448;2024-03-06T09:05:54;19.20;;;10.27;;
37945;SDS011;23769;52.478;13.448;2024-03-06T09:08:21;18.17;;;10.25;;
37945;SDS011;23769;52.478;13.448;2024-03-06T09:10:49;14.88;;;10.13;;
37945;SDS011;23769;52.478;13.448;2024-03-06T09:13:16;18.55;;;11.88;;
37945;SDS011;23769;52.478;13.448;2024-03-06T09:15:44;14.55;;;10.05;;
37945;SDS011;23769;52.478;13.448;2024-03-06T09:18:12;15.10;;;10.50;;
37945;SDS011;23769;52.478;13.448;2024-03-06T09:20:41;17.83;;;10.65;;
37945;SDS011;23769;52.478;13.448;2024-03-06T09:23:08;15.88;;;9.48;;
37945;SDS011;23769;52.478;13.448;2024-03-06T09:25:36;18.67;;;10.13;;
37945;SDS011;23769;52.478;13.448;2024-03-06T09:28:03;14.27;;;8.55;;
37945;SDS011;23769;52.478;13.448;2024-03-06T09:30:30;18.17;;;10.18;;
37945;SDS011;23769;52.478;13.448;2024-03-06T09:32:59;16.45;;;10.13;;
37945;SDS011;23769;52.478;13.448;2024-03-06T09:35:26;15.05;;;9.80;;
37945;SDS011;23769;52.478;13.448;2024-03-06T09:37:53;16.75;;;10.10;;
37945;SDS011;23769;52.478;13.448;2024-03-06T09:40:23;15.73;;;9.63;;
37945;SDS011;23769;52.478;13.448;2024-03-06T09:42:50;17.00;;;10.45;;
37945;SDS011;23769;52.478;13.448;2024-03-06T09:45:18;13.85;;;8.63;;
37945;SDS011;23769;52.478;13.448;2024-03-06T09:47:46;12.90;;;8.15;;
37945;SDS011;23769;52.478;13.448;2024-03-06T09:52:48;10.13;;;7.18;;
37945;SDS011;23769;52.478;13.448;2024-03-06T09:55:18;12.57;;;7.65;;
37945;SDS011;23769;52.478;13.448;2024-03-06T09:57:45;12.90;;;8.43;;
37945;SDS011;23769;52.478;13.448;2024-03-06T10:00:13;13.23;;;8.23;;
37945;SDS011;23769;52.478;13.448;2024-03-06T10:02:43;13.65;;;8.27;;
37945;SDS011;23769;52.478;13.448;2024-03-06T10:05:22;14.15;;;8.23;;
37945;SDS011;23769;52.478;13.448;2024-03-06T10:07:51;13.70;;;7.57;;
37945;SDS011;23769;52.478;13.448;2024-03-06T10:10:19;12.23;;;7.53;;
37945;SDS011;23769;52.478;13.448;2024-03-06T10:12:47;12.00;;;7.60;;
37945;SDS011;23769;52.478;13.448;2024-03-06T10:15:15;11.63;;;7.03;;
37945;SDS011;23769;52.478;13.448;2024-03-06T10:17:42;12.07;;;7.55;;
37945;SDS011;23769;52.478;13.448;2024-03-06T10:20:16;11.20;;;7.35;;
37945;SDS011;23769;52.478;13.448;2024-03-06T10:22:46;10.93;;;7.53;;
37945;SDS011;23769;52.478;13.448;2024-03-06T10:25:14;13.52;;;7.20;;
37945;SDS011;23769;52.478;13.448;2024-03-06T10:27:41;10.50;;;6.80;;
37945;SDS011;23769;52.478;13.448;2024-03-06T10:30:09;10.93;;;7.18;;
37945;SDS011;23769;52.478;13.448;2024-03-06T10:32:38;12.25;;;8.10;;
37945;SDS011;23769;52.478;13.448;2024-03-06T10:35:05;12.80;;;7.47;;
37945;SDS011;23769;52.478;13.448;2024-03-06T10:37:34;13.65;;;7.93;;
37945;SDS011;23769;52.478;13.448;2024-03-06T10:40:02;12.68;;;8.15;;
37945;SDS011;23769;52.478;13.448;2024-03-06T10:42:32;13.23;;;8.27;;
37945;SDS011;23769;52.478;13.448;2024-03-06T10:45:00;13.43;;;8.45;;
37945;SDS011;23769;52.478;13.448;2024-03-06T10:47:28;12.50;;;8.57;;
37945;SDS011;23769;52.478;13.448;2024-03-06T10:49:55;12.30;;;8.10;;
37945;SDS011;23769;52.478;13.448;2024-03-06T10:52:26;11.65;;;7.18;;
37945;SDS011;23769;52.478;13.448;2024-03-06T10:54:54;11.40;;;7.90;;
37945;SDS011;23769;52.478;13.448;2024-03-06T10:57:23;11.93;;;7.93;;
37945;SDS011;23769;52.478;13.448;2024-03-06T10:59:52;11.30;;;7.20;;
37945;SDS011;23769;52.478;13.448;2024-03-06T11:02:19;10.45;;;7.28;;
37945;SDS011;23769;52.478;13.448;2024-03-06T11:04:47;11.45;;;6.80;;
37945;SDS011;23769;52.478;13.448;2024-03-06T11:07:15;11.13;;;7.22;;
37945;SDS011;23769;52.478;13.448;2024-03-06T11:09:43;10.77;;;6.88;;
37945;SDS011;23769;52.478;13.448;2024-03-06T11:12:13;10.30;;;6.05;;
37945;SDS011;23769;52.478;13.448;2024-03-06T11:15:00;12.27;;;7.47;;
37945;SDS011;23769;52.478;13.448;2024-03-06T11:17:28;13.38;;;7.88;;
37945;SDS011;23769;52.478;13.448;2024-03-06T11:20:13;11.20;;;7.20;;
37945;SDS011;23769;52.478;13.448;2024-03-06T11:28:35;10.77;;;6.93;;
37945;SDS011;23769;52.478;13.448;2024-03-06T11:31:07;11.30;;;7.40;;
37945;SDS011;23769;52.478;13.448;2024-03-06T11:33:37;12.18;;;7.22;;
37945;SDS011;23769;52.478;13.448;2024-03-06T11:36:14;11.05;;;7.43;;
37945;SDS011;23769;52.478;13.448;2024-03-06T11:38:43;12.48;;;7.38;;
37945;SDS011;23769;52.478;13.448;2024-03-06T11:41:13;11.77;;;7.57;;
37945;SDS011;23769;52.478;13.448;2024-03-06T11:43:43;14.23;;;8.65;;
37945;SDS011;23769;52.478;13.448;2024-03-06T11:46:12;12.80;;;8.07;;
37945;SDS011;23769;52.478;13.448;2024-03-06T11:48:39;13.18;;;8.73;;
37945;SDS011;23769;52.478;13.448;2024-03-06T11:51:07;13.52;;;8.57;;
37945;SDS011;23769;52.478;13.448;2024-03-06T11:53:35;13.50;;;8.45;;
37945;SDS011;23769;52.478;13.448;2024-03-06T11:56:05;13.68;;;8.77;;
37945;SDS011;23769;52.478;13.448;2024-03-06T11:58:33;12.30;;;8.02;;
37945;SDS011;23769;52.478;13.448;2024-03-06T12:01:01;12.80;;;7.50;;
37945;SDS011;23769;52.478;13.448;2024-03-06T12:03:30;9.43;;;6.50;;
37945;SDS011;23769;52.478;13.448;2024-03-06T12:05:57;10.45;;;6.75;;
37945;SDS011;23769;52.478;13.448;2024-03-06T12:08:25;11.23;;;7.18;;
37945;SDS011;23769;52.478;13.448;2024-03-06T12:10:52;12.77;;;8.43;;
37945;SDS011;23769;52.478;13.448;2024-03-06T12:13:20;15.02;;;9.80;;
37945;SDS011;23769;52.478;13.448;2024-03-06T12:15:48;16.15;;;10.68;;
37945;SDS011;23769;52.478;13.448;2024-03-06T12:18:16;16.08;;;11.80;;
37945;SDS011;23769;52.478;13.448;2024-03-06T12:20:45;20.70;;;14.32;;
37945;SDS011;23769;52.478;13.448;2024-03-06T12:23:20;23.05;;;15.45;;
37945;SDS011;23769;52.478;13.448;2024-03-06T12:26:01;24.92;;;15.25;;
37945;SDS011;23769;52.478;13.448;2024-03-06T12:28:28;19.75;;;13.60;;
37945;SDS011;23769;52.478;13.448;2024-03-06T12:30:56;17.05;;;12.45;;
37945;SDS011;23769;52.478;13.448;2024-03-06T12:33:26;16.17;;;12.95;;
37945;SDS011;23769;52.478;13.448;2024-03-06T12:36:01;18.13;;;10.60;;
37945;SDS011;23769;52.478;13.448;2024-03-06T12:38:29;15.60;;;10.82;;
37945;SDS011;23769;52.478;13.448;2024-03-06T12:40:56;19.35;;;11.55;;
37945;SDS011;23769;52.478;13.448;2024-03-06T12:43:23;15.05;;;9.05;;
37945;SDS011;23769;52.478;13.448;2024-03-06T12:45:51;14.30;;;9.55;;
37945;SDS011;23769;52.478;13.448;2024-03-06T12:48:20;14.55;;;9.95;;
37945;SDS011;23769;52.478;13.448;2024-03-06T12:50:47;15.27;;;10.45;;
37945;SDS011;23769;52.478;13.448;2024-03-06T12:53:18;16.88;;;10.15;;
37945;SDS011;23769;52.478;13.448;2024-03-06T12:55:45;13.95;;;10.57;;
37945;SDS011;23769;52.478;13.448;2024-03-06T12:58:12;14.13;;;9.80;;
37945;SDS011;23769;52.478;13.448;2024-03-06T13:00:40;13.70;;;9.75;;
37945;SDS011;23769;52.478;13.448;2024-03-06T13:03:07;14.73;;;9.30;;
37945;SDS011;23769;52.478;13.448;2024-03-06T13:05:35;14.98;;;10.50;;
37945;SDS011;23769;52.478;13.448;2024-03-06T13:08:03;17.75;;;10.57;;
37945;SDS011;23769;52.478;13.448;2024-03-06T13:10:32;15.07;;;10.07;;
37945;SDS011;23769;52.478;13.448;2024-03-06T13:13:00;14.27;;;11.07;;
37945;SDS011;23769;52.478;13.448;2024-03-06T13:15:28;15.25;;;9.80;;
37945;SDS011;23769;52.478;13.448;2024-03-06T13:17:55;15.35;;;9.32;;
37945;SDS011;23769;52.478;13.448;2024-03-06T13:20:22;14.15;;;9.50;;
37945;SDS011;23769;52.478;13.448;2024-03-06T13:22:49;15.95;;;10.93;;
37945;SDS011;23769;52.478;13.448;2024-03-06T13:25:16;16.15;;;10.90;;
37945;SDS011;23769;52.478;13.448;2024-03-06T13:27:45;17.17;;;11.23;;
37945;SDS011;23769;52.478;13.448;2024-03-06T13:30:13;17.75;;;11.63;;
37945;SDS011;23769;52.478;13.448;2024-03-06T13:32:40;20.63;;;12.27;;
37945;SDS011;23769;52.478;13.448;2024-03-06T13:35:10;19.77;;;11.98;;
37945;SDS011;23769;52.478;13.448;2024-03-06T13:37:38;17.90;;;11.90;;
37945;SDS011;23769;52.478;13.448;2024-03-06T13:40:07;16.45;;;10.30;;
37945;SDS011;23769;52.478;13.448;2024-03-06T13:42:35;18.00;;;12.07;;
37945;SDS011;23769;52.478;13.448;2024-03-06T13:45:04;21.55;;;12.80;;
37945;SDS011;23769;52.478;13.448;2024-03-06T13:47:36;21.02;;;14.25;;
37945;SDS011;23769;52.478;13.448;2024-03-06T13:50:05;24.02;;;13.55;;
37945;SDS011;23769;52.478;13.448;2024-03-06T13:52:33;30.20;;;16.40;;
37945;SDS011;23769;52.478;13.448;2024-03-06T13:55:00;30.05;;;16.98;;
37945;SDS011;23769;52.478;13.448;2024-03-06T13:57:29;32.58;;;17.77;;
37945;SDS011;23769;52.478;13.448;2024-03-06T13:59:58;29.48;;;17.60;;
37945;SDS011;23769;52.478;13.448;2024-03-06T14:02:27;27.20;;;16.55;;
37945;SDS011;23769;52.478;13.448;2024-03-06T14:04:54;32.92;;;17.17;;
37945;SDS011;23769;52.478;13.448;2024-03-06T14:07:22;23.20;;;13.48;;
37945;SDS011;23769;52.478;13.448;2024-03-06T14:09:49;26.70;;;14.30;;
37945;SDS011;23769;52.478;13.448;2024-03-06T14:12:16;21.90;;;13.55;;
37945;SDS011;23769;52.478;13.448;2024-03-06T14:14:43;16.50;;;11.18;;
37945;SDS011;23769;52.478;13.448;2024-03-06T14:17:11;20.45;;;13.10;;
37945;SDS011;23769;52.478;13.448;2024-03-06T14:19:40;17.80;;;11.75;;
37945;SDS011;23769;52.478;13.448;2024-03-06T14:22:07;19.35;;;10.68;;
37945;SDS011;23769;52.478;13.448;2024-03-06T14:24:35;18.13;;;10.98;;